sensor_id;sensor_type;location;lat;lon;timestamp;P1;durP1;ratioP1;P2;durP2;ratioP2
24335;SDS011;33098;52.400;16.880;2022-12-18T00:03:45;54.30;;;21.50;;
24335;SDS011;33098;52.400;16.880;2022-12-18T00:06:14;50.50;;;21.80;;
24335;SDS011;33098;52.400;16.880;2022-12-18T00:08:42;55.10;;;22.80;;
24335;SDS011;33098;52.400;16.880;2022-12-18T00:11:14;50.50;;;21.50;;
24335;SDS011;33098;52.400;16.880;2022-12-18T00:13:43;52.10;;;22.20;;
24335;SDS011;33098;52.400;16.880;2022-12-18T00:16:13;51.60;;;21.40;;
24335;SDS011;33098;52.400;16.880;2022-12-18T00:18:42;52.80;;;22.80;;
24335;SDS011;33098;52.400;16.880;2022-12-18T00:21:09;50.80;;;22.30;;
24335;SDS011;33098;52.400;16.880;2022-12-18T00:23:38;48.50;;;21.40;;
24335;SDS011;33098;52.400;16.880;2022-12-18T00:26:09;53.40;;;22.20;;
24335;SDS011;33098;52.400;16.880;2022-12-18T00:28:41;57.50;;;24.20;;
24335;SDS011;33098;52.400;16.880;2022-12-18T00:31:10;57.60;;;23.70;;
24335;SDS011;33098;52.400;16.880;2022-12-18T00:33:38;55.10;;;21.90;;
24335;SDS011;33098;52.400;16.880;2022-12-18T00:36:06;47.40;;;20.20;;
24335;SDS011;33098;52.400;16.880;2022-12-18T00:41:03;46.80;;;21.20;;
24335;SDS011;33098;52.400;16.880;2022-12-18T00:43:29;50.40;;;20.50;;
24335;SDS011;33098;52.400;16.880;2022-12-18T00:45:56;51.30;;;21.70;;
24335;SDS011;33098;52.400;16.880;2022-12-18T00:48:22;58.10;;;23.80;;
24335;SDS011;33098;52.400;16.880;2022-12-18T00:50:49;54.60;;;22.80;;
24335;SDS011;33098;52.400;16.880;2022-12-18T00:53:16;51.50;;;22.60;;
24335;SDS011;33098;52.400;16.880;2022-12-18T00:55:44;53.70;;;23.60;;
24335;SDS011;33098;52.400;16.880;2022-12-18T00:58:12;56.00;;;23.30;;
24335;SDS011;33098;52.400;16.880;2022-12-18T01:00:40;55.50;;;23.80;;
24335;SDS011;33098;52.400;16.880;2022-12-18T01:03:12;55.50;;;23.60;;
24335;SDS011;33098;52.400;16.880;2022-12-18T01:05:41;53.80;;;22.40;;
24335;SDS011;33098;52.400;16.880;2022-12-18T01:08:08;53.00;;;21.80;;
24335;SDS011;33098;52.400;16.880;2022-12-18T01:10:35;49.80;;;20.40;;
24335;SDS011;33098;52.400;16.880;2022-12-18T01:13:02;56.30;;;22.60;;
24335;SDS011;33098;52.400;16.880;2022-12-18T01:15:28;50.50;;;21.30;;
24335;SDS011;33098;52.400;16.880;2022-12-18T01:17:55;50.70;;;21.40;;
24335;SDS011;33098;52.400;16.880;2022-12-18T01:20:22;44.40;;;19.60;;
24335;SDS011;33098;52.400;16.880;2022-12-18T01:22:48;41.90;;;18.40;;
24335;SDS011;33098;52.400;16.880;2022-12-18T01:25:15;48.00;;;20.90;;
24335;SDS011;33098;52.400;16.880;2022-12-18T01:27:43;54.00;;;22.00;;
24335;SDS011;33098;52.400;16.880;2022-12-18T01:30:09;54.20;;;22.20;;
24335;SDS011;33098;52.400;16.880;2022-12-18T01:32:36;54.90;;;22.40;;
24335;SDS011;33098;52.400;16.880;2022-12-18T01:35:03;53.40;;;23.30;;
24335;SDS011;33098;52.400;16.880;2022-12-18T01:37:30;55.40;;;23.60;;
24335;SDS011;33098;52.400;16.880;2022-12-18T01:39:57;49.60;;;20.40;;
24335;SDS011;33098;52.400;16.880;2022-12-18T01:42:23;52.30;;;23.60;;
24335;SDS011;33098;52.400;16.880;2022-12-18T01:44:59;48.60;;;21.20;;
24335;SDS011;33098;52.400;16.880;2022-12-18T01:47:28;58.40;;;21.70;;
24335;SDS011;33098;52.400;16.880;2022-12-18T01:49:56;55.30;;;23.80;;
24335;SDS011;33098;52.400;16.880;2022-12-18T01:52:24;56.80;;;23.40;;
24335;SDS011;33098;52.400;16.880;2022-12-18T01:54:54;48.70;;;21.60;;
24335;SDS011;33098;52.400;16.880;2022-12-18T01:57:22;57.10;;;22.90;;
24335;SDS011;33098;52.400;16.880;2022-12-18T01:59:52;53.20;;;22.50;;
24335;SDS011;33098;52.400;16.880;2022-12-18T02:02:20;48.20;;;21.00;;
24335;SDS011;33098;52.400;16.880;2022-12-18T02:04:47;49.50;;;20.90;;
24335;SDS011;33098;52.400;16.880;2022-12-18T02:07:17;41.20;;;18.80;;
24335;SDS011;33098;52.400;16.880;2022-12-18T02:10:07;43.40;;;17.90;;
24335;SDS011;33098;52.400;16.880;2022-12-18T02:16:18;44.20;;;20.50;;
24335;SDS011;33098;52.400;16.880;2022-12-18T02:24:18;50.80;;;20.80;;
24335;SDS011;33098;52.400;16.880;2022-12-18T02:26:50;41.70;;;18.70;;
24335;SDS011;33098;52.400;16.880;2022-12-18T02:31:54;54.00;;;22.10;;
24335;SDS011;33098;52.400;16.880;2022-12-18T02:34:26;55.10;;;22.00;;
24335;SDS011;33098;52.400;16.880;2022-12-18T02:36:57;49.80;;;21.40;;
24335;SDS011;33098;52.400;16.880;2022-12-18T02:39:28;50.70;;;22.30;;
24335;SDS011;33098;52.400;16.880;2022-12-18T02:41:58;57.10;;;22.90;;
24335;SDS011;33098;52.400;16.880;2022-12-18T02:44:28;51.30;;;22.30;;
24335;SDS011;33098;52.400;16.880;2022-12-18T02:46:55;62.60;;;23.50;;
24335;SDS011;33098;52.400;16.880;2022-12-18T02:49:25;53.20;;;22.50;;
24335;SDS011;33098;52.400;16.880;2022-12-18T02:52:17;60.00;;;23.50;;
24335;SDS011;33098;52.400;16.880;2022-12-18T02:57:46;54.20;;;22.40;;
24335;SDS011;33098;52.400;16.880;2022-12-18T03:00:20;66.00;;;25.60;;
24335;SDS011;33098;52.400;16.880;2022-12-18T03:03:03;64.10;;;26.20;;
24335;SDS011;33098;52.400;16.880;2022-12-18T03:05:37;70.50;;;28.50;;
24335;SDS011;33098;52.400;16.880;2022-12-18T03:08:14;65.40;;;25.30;;
24335;SDS011;33098;52.400;16.880;2022-12-18T03:10:56;72.50;;;26.80;;
24335;SDS011;33098;52.400;16.880;2022-12-18T03:13:31;63.90;;;26.00;;
24335;SDS011;33098;52.400;16.880;2022-12-18T03:16:06;66.40;;;27.50;;
24335;SDS011;33098;52.400;16.880;2022-12-18T03:18:39;68.70;;;26.90;;
24335;SDS011;33098;52.400;16.880;2022-12-18T03:21:13;67.90;;;27.30;;
24335;SDS011;33098;52.400;16.880;2022-12-18T03:23:44;68.50;;;27.80;;
24335;SDS011;33098;52.400;16.880;2022-12-18T03:26:22;66.40;;;26.80;;
24335;SDS011;33098;52.400;16.880;2022-12-18T03:28:53;68.80;;;25.80;;
24335;SDS011;33098;52.400;16.880;2022-12-18T03:31:27;61.40;;;25.50;;
24335;SDS011;33098;52.400;16.880;2022-12-18T03:33:58;58.30;;;24.60;;
24335;SDS011;33098;52.400;16.880;2022-12-18T03:36:37;60.10;;;25.20;;
24335;SDS011;33098;52.400;16.880;2022-12-18T03:39:04;60.60;;;25.00;;
24335;SDS011;33098;52.400;16.880;2022-12-18T03:41:35;61.40;;;24.60;;
24335;SDS011;33098;52.400;16.880;2022-12-18T03:49:50;46.40;;;19.90;;
24335;SDS011;33098;52.400;16.880;2022-12-18T03:52:36;49.30;;;20.30;;
24335;SDS011;33098;52.400;16.880;2022-12-18T03:57:57;51.90;;;21.30;;
24335;SDS011;33098;52.400;16.880;2022-12-18T04:00:25;49.70;;;21.60;;
24335;SDS011;33098;52.400;16.880;2022-12-18T04:02:56;49.20;;;20.60;;
24335;SDS011;33098;52.400;16.880;2022-12-18T04:05:32;50.80;;;20.80;;
24335;SDS011;33098;52.400;16.880;2022-12-18T04:08:01;50.40;;;20.80;;
24335;SDS011;33098;52.400;16.880;2022-12-18T04:10:29;47.10;;;19.80;;
24335;SDS011;33098;52.400;16.880;2022-12-18T04:12:57;48.40;;;20.40;;
24335;SDS011;33098;52.400;16.880;2022-12-18T04:15:25;46.30;;;20.80;;
24335;SDS011;33098;52.400;16.880;2022-12-18T04:17:52;48.60;;;20.30;;
24335;SDS011;33098;52.400;16.880;2022-12-18T04:20:21;45.40;;;19.70;;
24335;SDS011;33098;52.400;16.880;2022-12-18T04:22:47;43.50;;;18.60;;
24335;SDS011;33098;52.400;16.880;2022-12-18T04:25:14;43.50;;;19.60;;
24335;SDS011;33098;52.400;16.880;2022-12-18T04:27:51;50.80;;;21.00;;
24335;SDS011;33098;52.400;16.880;2022-12-18T04:30:18;49.70;;;20.70;;
24335;SDS011;33098;52.400;16.880;2022-12-18T04:32:45;56.30;;;21.60;;
24335;SDS011;33098;52.400;16.880;2022-12-18T04:35:12;52.00;;;21.70;;
24335;SDS011;33098;52.400;16.880;2022-12-18T04:37:40;49.30;;;21.20;;
24335;SDS011;33098;52.400;16.880;2022-12-18T04:40:07;50.30;;;20.90;;
24335;SDS011;33098;52.400;16.880;2022-12-18T04:42:39;50.60;;;21.30;;
24335;SDS011;33098;52.400;16.880;2022-12-18T04:45:07;55.30;;;22.50;;
24335;SDS011;33098;52.400;16.880;2022-12-18T04:47:34;53.50;;;22.80;;
24335;SDS011;33098;52.400;16.880;2022-12-18T04:50:00;57.40;;;23.30;;
24335;SDS011;33098;52.400;16.880;2022-12-18T04:52:27;56.30;;;23.30;;
24335;SDS011;33098;52.400;16.880;2022-12-18T04:54:53;57.50;;;23.30;;
24335;SDS011;33098;52.400;16.880;2022-12-18T04:57:20;50.60;;;22.60;;
24335;SDS011;33098;52.400;16.880;2022-12-18T04:59:46;58.20;;;23.30;;
24335;SDS011;33098;52.400;16.880;2022-12-18T05:02:13;51.00;;;21.80;;
24335;SDS011;33098;52.400;16.880;2022-12-18T05:04:39;51.40;;;21.00;;
24335;SDS011;33098;52.400;16.880;2022-12-18T05:07:06;49.90;;;21.40;;
24335;SDS011;33098;52.400;16.880;2022-12-18T05:09:32;54.40;;;22.70;;
24335;SDS011;33098;52.400;16.880;2022-12-18T05:11:59;59.00;;;23.70;;
24335;SDS011;33098;52.400;16.880;2022-12-18T05:14:25;59.10;;;23.30;;
24335;SDS011;33098;52.400;16.880;2022-12-18T05:16:53;58.90;;;23.70;;
24335;SDS011;33098;52.400;16.880;2022-12-18T05:19:20;50.30;;;22.30;;
24335;SDS011;33098;52.400;16.880;2022-12-18T05:21:46;58.30;;;23.50;;
24335;SDS011;33098;52.400;16.880;2022-12-18T05:24:13;54.50;;;23.10;;
24335;SDS011;33098;52.400;16.880;2022-12-18T05:26:40;54.40;;;22.60;;
24335;SDS011;33098;52.400;16.880;2022-12-18T05:29:06;53.90;;;22.00;;
24335;SDS011;33098;52.400;16.880;2022-12-18T05:31:33;55.80;;;22.00;;
24335;SDS011;33098;52.400;16.880;2022-12-18T05:33:59;47.80;;;20.30;;
24335;SDS011;33098;52.400;16.880;2022-12-18T05:36:26;46.30;;;19.70;;
24335;SDS011;33098;52.400;16.880;2022-12-18T05:38:52;45.20;;;19.40;;
24335;SDS011;33098;52.400;16.880;2022-12-18T05:41:19;51.50;;;21.00;;
24335;SDS011;33098;52.400;16.880;2022-12-18T05:43:45;49.40;;;19.70;;
24335;SDS011;33098;52.400;16.880;2022-12-18T05:46:13;49.00;;;20.40;;
24335;SDS011;33098;52.400;16.880;2022-12-18T05:48:42;47.40;;;20.40;;
24335;SDS011;33098;52.400;16.880;2022-12-18T05:51:10;45.50;;;20.10;;
24335;SDS011;33098;52.400;16.880;2022-12-18T05:53:38;49.50;;;20.40;;
24335;SDS011;33098;52.400;16.880;2022-12-18T05:56:06;54.30;;;21.10;;
24335;SDS011;33098;52.400;16.880;2022-12-18T05:58:34;49.30;;;20.60;;
24335;SDS011;33098;52.400;16.880;2022-12-18T06:01:06;51.10;;;20.60;;
24335;SDS011;33098;52.400;16.880;2022-12-18T06:03:40;51.40;;;21.50;;
24335;SDS011;33098;52.400;16.880;2022-12-18T06:06:14;45.60;;;19.50;;
24335;SDS011;33098;52.400;16.880;2022-12-18T06:08:48;46.30;;;18.80;;
24335;SDS011;33098;52.400;16.880;2022-12-18T06:11:17;41.80;;;19.10;;
24335;SDS011;33098;52.400;16.880;2022-12-18T06:13:46;44.80;;;18.50;;
24335;SDS011;33098;52.400;16.880;2022-12-18T06:16:15;32.00;;;13.30;;
24335;SDS011;33098;52.400;16.880;2022-12-18T06:18:41;40.30;;;17.00;;
24335;SDS011;33098;52.400;16.880;2022-12-18T06:21:08;45.20;;;18.20;;
24335;SDS011;33098;52.400;16.880;2022-12-18T06:23:35;41.30;;;17.60;;
24335;SDS011;33098;52.400;16.880;2022-12-18T06:26:06;49.70;;;19.70;;
24335;SDS011;33098;52.400;16.880;2022-12-18T06:28:34;45.60;;;19.70;;
24335;SDS011;33098;52.400;16.880;2022-12-18T06:31:02;49.40;;;20.60;;
24335;SDS011;33098;52.400;16.880;2022-12-18T06:33:30;54.20;;;20.40;;
24335;SDS011;33098;52.400;16.880;2022-12-18T06:36:03;46.00;;;19.30;;
24335;SDS011;33098;52.400;16.880;2022-12-18T06:38:33;46.80;;;17.80;;
24335;SDS011;33098;52.400;16.880;2022-12-18T06:41:09;40.40;;;18.10;;
24335;SDS011;33098;52.400;16.880;2022-12-18T06:43:37;47.20;;;19.00;;
24335;SDS011;33098;52.400;16.880;2022-12-18T06:46:04;45.70;;;19.40;;
24335;SDS011;33098;52.400;16.880;2022-12-18T06:48:31;48.00;;;19.60;;
24335;SDS011;33098;52.400;16.880;2022-12-18T06:50:58;52.40;;;20.50;;
24335;SDS011;33098;52.400;16.880;2022-12-18T06:53:26;54.30;;;22.50;;
24335;SDS011;33098;52.400;16.880;2022-12-18T06:55:53;57.20;;;22.00;;
24335;SDS011;33098;52.400;16.880;2022-12-18T06:58:25;55.80;;;22.20;;
24335;SDS011;33098;52.400;16.880;2022-12-18T07:00:53;57.20;;;22.20;;
24335;SDS011;33098;52.400;16.880;2022-12-18T07:03:19;62.30;;;23.70;;
24335;SDS011;33098;52.400;16.880;2022-12-18T07:05:46;56.10;;;21.60;;
24335;SDS011;33098;52.400;16.880;2022-12-18T07:08:12;59.60;;;22.80;;
24335;SDS011;33098;52.400;16.880;2022-12-18T07:10:42;61.30;;;23.60;;
24335;SDS011;33098;52.400;16.880;2022-12-18T07:15:35;65.50;;;25.20;;
24335;SDS011;33098;52.400;16.880;2022-12-18T07:18:02;61.80;;;25.40;;
24335;SDS011;33098;52.400;16.880;2022-12-18T07:20:29;61.00;;;24.40;;
24335;SDS011;33098;52.400;16.880;2022-12-18T07:22:56;63.70;;;25.20;;
24335;SDS011;33098;52.400;16.880;2022-12-18T07:25:22;63.30;;;24.10;;
24335;SDS011;33098;52.400;16.880;2022-12-18T07:27:49;53.70;;;22.80;;
24335;SDS011;33098;52.400;16.880;2022-12-18T07:30:16;62.50;;;24.30;;
24335;SDS011;33098;52.400;16.880;2022-12-18T07:32:42;66.30;;;24.60;;
24335;SDS011;33098;52.400;16.880;2022-12-18T07:35:09;62.90;;;25.60;;
24335;SDS011;33098;52.400;16.880;2022-12-18T07:37:35;62.30;;;24.40;;
24335;SDS011;33098;52.400;16.880;2022-12-18T07:40:02;59.80;;;24.40;;
24335;SDS011;33098;52.400;16.880;2022-12-18T07:42:28;58.10;;;24.40;;
24335;SDS011;33098;52.400;16.880;2022-12-18T07:44:58;58.90;;;23.80;;
24335;SDS011;33098;52.400;16.880;2022-12-18T07:47:26;63.60;;;24.20;;
24335;SDS011;33098;52.400;16.880;2022-12-18T07:49:54;59.60;;;23.80;;
24335;SDS011;33098;52.400;16.880;2022-12-18T07:52:21;58.40;;;23.50;;
24335;SDS011;33098;52.400;16.880;2022-12-18T07:54:47;54.50;;;22.70;;
24335;SDS011;33098;52.400;16.880;2022-12-18T07:57:16;60.10;;;24.20;;
24335;SDS011;33098;52.400;16.880;2022-12-18T07:59:43;58.40;;;23.50;;
24335;SDS011;33098;52.400;16.880;2022-12-18T08:02:09;64.90;;;25.70;;
24335;SDS011;33098;52.400;16.880;2022-12-18T08:04:36;66.90;;;25.40;;
24335;SDS011;33098;52.400;16.880;2022-12-18T08:07:03;62.40;;;24.20;;
24335;SDS011;33098;52.400;16.880;2022-12-18T08:09:30;62.60;;;25.20;;
24335;SDS011;33098;52.400;16.880;2022-12-18T08:11:56;60.10;;;24.10;;
24335;SDS011;33098;52.400;16.880;2022-12-18T08:14:22;54.20;;;23.20;;
24335;SDS011;33098;52.400;16.880;2022-12-18T08:16:49;57.70;;;24.20;;
24335;SDS011;33098;52.400;16.880;2022-12-18T08:19:15;63.00;;;24.80;;
24335;SDS011;33098;52.400;16.880;2022-12-18T08:21:42;61.10;;;24.30;;
24335;SDS011;33098;52.400;16.880;2022-12-18T08:24:08;58.70;;;23.80;;
24335;SDS011;33098;52.400;16.880;2022-12-18T08:26:38;59.20;;;24.40;;
24335;SDS011;33098;52.400;16.880;2022-12-18T08:29:05;61.90;;;24.30;;
24335;SDS011;33098;52.400;16.880;2022-12-18T08:31:32;54.50;;;23.30;;
24335;SDS011;33098;52.400;16.880;2022-12-18T08:33:59;51.30;;;21.50;;
24335;SDS011;33098;52.400;16.880;2022-12-18T08:36:25;52.20;;;20.90;;
24335;SDS011;33098;52.400;16.880;2022-12-18T08:38:52;49.40;;;20.30;;
24335;SDS011;33098;52.400;16.880;2022-12-18T08:41:19;47.20;;;20.80;;
24335;SDS011;33098;52.400;16.880;2022-12-18T08:43:46;47.00;;;21.10;;
24335;SDS011;33098;52.400;16.880;2022-12-18T08:46:36;49.10;;;21.20;;
24335;SDS011;33098;52.400;16.880;2022-12-18T08:49:04;53.00;;;21.50;;
24335;SDS011;33098;52.400;16.880;2022-12-18T08:51:31;55.10;;;23.30;;
24335;SDS011;33098;52.400;16.880;2022-12-18T08:53:58;46.80;;;20.40;;
24335;SDS011;33098;52.400;16.880;2022-12-18T08:56:25;51.00;;;22.20;;
24335;SDS011;33098;52.400;16.880;2022-12-18T08:58:52;51.60;;;23.00;;
24335;SDS011;33098;52.400;16.880;2022-12-18T09:01:19;52.80;;;22.30;;
24335;SDS011;33098;52.400;16.880;2022-12-18T09:03:48;50.60;;;21.90;;
24335;SDS011;33098;52.400;16.880;2022-12-18T09:06:18;50.20;;;21.50;;
24335;SDS011;33098;52.400;16.880;2022-12-18T09:08:46;44.90;;;20.00;;
24335;SDS011;33098;52.400;16.880;2022-12-18T09:11:20;55.20;;;23.10;;
24335;SDS011;33098;52.400;16.880;2022-12-18T09:13:49;52.90;;;24.00;;
24335;SDS011;33098;52.400;16.880;2022-12-18T09:16:16;46.40;;;22.50;;
24335;SDS011;33098;52.400;16.880;2022-12-18T09:18:43;45.30;;;21.80;;
24335;SDS011;33098;52.400;16.880;2022-12-18T09:21:10;51.40;;;22.10;;
24335;SDS011;33098;52.400;16.880;2022-12-18T09:23:42;54.40;;;24.00;;
24335;SDS011;33098;52.400;16.880;2022-12-18T09:26:09;48.40;;;24.10;;
24335;SDS011;33098;52.400;16.880;2022-12-18T09:28:36;53.50;;;24.20;;
24335;SDS011;33098;52.400;16.880;2022-12-18T09:31:04;52.40;;;23.30;;
24335;SDS011;33098;52.400;16.880;2022-12-18T09:33:35;55.70;;;26.20;;
24335;SDS011;33098;52.400;16.880;2022-12-18T09:36:03;58.20;;;25.30;;
24335;SDS011;33098;52.400;16.880;2022-12-18T09:38:33;57.10;;;26.90;;
24335;SDS011;33098;52.400;16.880;2022-12-18T09:41:01;59.90;;;26.90;;
24335;SDS011;33098;52.400;16.880;2022-12-18T09:46:36;45.90;;;21.00;;
24335;SDS011;33098;52.400;16.880;2022-12-18T09:49:07;70.00;;;30.60;;
24335;SDS011;33098;52.400;16.880;2022-12-18T09:51:41;69.20;;;31.30;;
24335;SDS011;33098;52.400;16.880;2022-12-18T09:54:18;62.00;;;29.10;;
24335;SDS011;33098;52.400;16.880;2022-12-18T09:56:48;71.90;;;32.50;;
24335;SDS011;33098;52.400;16.880;2022-12-18T09:59:25;63.90;;;29.80;;
24335;SDS011;33098;52.400;16.880;2022-12-18T10:01:57;67.10;;;30.20;;
24335;SDS011;33098;52.400;16.880;2022-12-18T10:04:23;58.10;;;27.50;;
24335;SDS011;33098;52.400;16.880;2022-12-18T10:06:52;63.50;;;30.80;;
24335;SDS011;33098;52.400;16.880;2022-12-18T10:12:07;57.90;;;28.20;;
24335;SDS011;33098;52.400;16.880;2022-12-18T10:14:44;55.50;;;28.30;;
24335;SDS011;33098;52.400;16.880;2022-12-18T10:17:32;55.10;;;27.00;;
24335;SDS011;33098;52.400;16.880;2022-12-18T10:23:16;53.50;;;27.80;;
24335;SDS011;33098;52.400;16.880;2022-12-18T10:25:53;52.20;;;25.70;;
24335;SDS011;33098;52.400;16.880;2022-12-18T10:28:27;45.90;;;23.40;;
24335;SDS011;33098;52.400;16.880;2022-12-18T10:30:56;47.60;;;23.50;;
24335;SDS011;33098;52.400;16.880;2022-12-18T10:33:24;51.00;;;24.30;;
24335;SDS011;33098;52.400;16.880;2022-12-18T10:35:55;51.30;;;26.00;;
24335;SDS011;33098;52.400;16.880;2022-12-18T10:38:23;58.40;;;26.00;;
24335;SDS011;33098;52.400;16.880;2022-12-18T10:41:01;51.40;;;26.00;;
24335;SDS011;33098;52.400;16.880;2022-12-18T10:43:38;52.90;;;25.90;;
24335;SDS011;33098;52.400;16.880;2022-12-18T10:48:34;55.00;;;26.20;;
24335;SDS011;33098;52.400;16.880;2022-12-18T10:51:08;47.80;;;23.90;;
24335;SDS011;33098;52.400;16.880;2022-12-18T10:53:36;43.20;;;23.10;;
24335;SDS011;33098;52.400;16.880;2022-12-18T10:56:04;47.10;;;24.50;;
24335;SDS011;33098;52.400;16.880;2022-12-18T10:58:36;47.00;;;22.50;;
24335;SDS011;33098;52.400;16.880;2022-12-18T11:01:06;46.70;;;23.40;;
24335;SDS011;33098;52.400;16.880;2022-12-18T11:03:44;49.50;;;24.50;;
24335;SDS011;33098;52.400;16.880;2022-12-18T11:06:13;45.60;;;23.80;;
24335;SDS011;33098;52.400;16.880;2022-12-18T11:08:42;48.60;;;24.40;;
24335;SDS011;33098;52.400;16.880;2022-12-18T11:11:20;46.20;;;23.10;;
24335;SDS011;33098;52.400;16.880;2022-12-18T11:14:02;41.10;;;22.40;;
24335;SDS011;33098;52.400;16.880;2022-12-18T11:16:36;40.40;;;21.30;;
24335;SDS011;33098;52.400;16.880;2022-12-18T11:24:59;39.00;;;19.90;;
24335;SDS011;33098;52.400;16.880;2022-12-18T11:27:28;41.70;;;20.90;;
24335;SDS011;33098;52.400;16.880;2022-12-18T11:30:09;36.70;;;19.60;;
24335;SDS011;33098;52.400;16.880;2022-12-18T11:32:47;37.90;;;21.30;;
24335;SDS011;33098;52.400;16.880;2022-12-18T11:35:18;41.10;;;22.40;;
24335;SDS011;33098;52.400;16.880;2022-12-18T11:37:56;51.30;;;26.20;;
24335;SDS011;33098;52.400;16.880;2022-12-18T11:40:35;52.00;;;26.50;;
24335;SDS011;33098;52.400;16.880;2022-12-18T11:43:07;44.20;;;23.80;;
24335;SDS011;33098;52.400;16.880;2022-12-18T11:45:41;39.70;;;22.40;;
24335;SDS011;33098;52.400;16.880;2022-12-18T11:50:50;44.00;;;24.10;;
24335;SDS011;33098;52.400;16.880;2022-12-18T11:53:20;43.30;;;23.90;;
24335;SDS011;33098;52.400;16.880;2022-12-18T12:05:03;42.10;;;21.90;;
24335;SDS011;33098;52.400;16.880;2022-12-18T12:07:59;35.10;;;20.40;;
24335;SDS011;33098;52.400;16.880;2022-12-18T12:10:44;42.60;;;22.10;;
24335;SDS011;33098;52.400;16.880;2022-12-18T12:16:25;48.40;;;23.40;;
24335;SDS011;33098;52.400;16.880;2022-12-18T12:24:45;34.80;;;19.90;;
24335;SDS011;33098;52.400;16.880;2022-12-18T12:30:03;38.30;;;20.70;;
24335;SDS011;33098;52.400;16.880;2022-12-18T12:35:38;38.40;;;19.20;;
24335;SDS011;33098;52.400;16.880;2022-12-18T12:38:11;35.50;;;20.40;;
24335;SDS011;33098;52.400;16.880;2022-12-18T12:40:47;39.30;;;21.30;;
24335;SDS011;33098;52.400;16.880;2022-12-18T12:45:58;38.30;;;21.60;;
24335;SDS011;33098;52.400;16.880;2022-12-18T12:51:23;44.20;;;23.30;;
24335;SDS011;33098;52.400;16.880;2022-12-18T12:53:54;40.50;;;22.90;;
24335;SDS011;33098;52.400;16.880;2022-12-18T12:56:22;45.10;;;23.80;;
24335;SDS011;33098;52.400;16.880;2022-12-18T12:59:02;42.00;;;23.20;;
24335;SDS011;33098;52.400;16.880;2022-12-18T13:01:41;46.10;;;24.70;;
24335;SDS011;33098;52.400;16.880;2022-12-18T13:04:34;49.30;;;25.50;;
24335;SDS011;33098;52.400;16.880;2022-12-18T13:07:16;47.70;;;24.60;;
24335;SDS011;33098;52.400;16.880;2022-12-18T13:15:37;41.30;;;22.00;;
24335;SDS011;33098;52.400;16.880;2022-12-18T13:20:37;37.70;;;19.50;;
24335;SDS011;33098;52.400;16.880;2022-12-18T13:23:25;36.70;;;20.20;;
24335;SDS011;33098;52.400;16.880;2022-12-18T13:34:17;34.00;;;19.40;;
24335;SDS011;33098;52.400;16.880;2022-12-18T13:36:45;35.60;;;19.10;;
24335;SDS011;33098;52.400;16.880;2022-12-18T13:41:45;32.70;;;19.10;;
24335;SDS011;33098;52.400;16.880;2022-12-18T13:49:52;39.90;;;21.20;;
24335;SDS011;33098;52.400;16.880;2022-12-18T13:52:20;37.80;;;21.20;;
24335;SDS011;33098;52.400;16.880;2022-12-18T13:54:53;44.40;;;23.40;;
24335;SDS011;33098;52.400;16.880;2022-12-18T13:59:56;45.60;;;24.00;;
24335;SDS011;33098;52.400;16.880;2022-12-18T14:02:24;45.40;;;23.00;;
24335;SDS011;33098;52.400;16.880;2022-12-18T14:04:53;48.10;;;25.10;;
24335;SDS011;33098;52.400;16.880;2022-12-18T14:07:24;51.40;;;25.30;;
24335;SDS011;33098;52.400;16.880;2022-12-18T14:09:53;56.10;;;26.10;;
24335;SDS011;33098;52.400;16.880;2022-12-18T14:12:30;50.30;;;26.00;;
24335;SDS011;33098;52.400;16.880;2022-12-18T14:17:53;53.10;;;26.20;;
24335;SDS011;33098;52.400;16.880;2022-12-18T14:22:51;49.10;;;26.90;;
24335;SDS011;33098;52.400;16.880;2022-12-18T14:25:19;60.10;;;29.70;;
24335;SDS011;33098;52.400;16.880;2022-12-18T14:27:51;58.90;;;29.70;;
24335;SDS011;33098;52.400;16.880;2022-12-18T14:35:35;57.90;;;29.50;;
24335;SDS011;33098;52.400;16.880;2022-12-18T14:40:43;59.00;;;29.20;;
24335;SDS011;33098;52.400;16.880;2022-12-18T14:43:10;57.20;;;29.40;;
24335;SDS011;33098;52.400;16.880;2022-12-18T14:45:41;58.40;;;28.80;;
24335;SDS011;33098;52.400;16.880;2022-12-18T14:48:14;52.40;;;27.90;;
24335;SDS011;33098;52.400;16.880;2022-12-18T14:50:43;56.60;;;28.00;;
24335;SDS011;33098;52.400;16.880;2022-12-18T14:53:21;61.40;;;29.10;;
24335;SDS011;33098;52.400;16.880;2022-12-18T14:55:53;52.20;;;27.50;;
24335;SDS011;33098;52.400;16.880;2022-12-18T14:58:20;51.70;;;26.90;;
24335;SDS011;33098;52.400;16.880;2022-12-18T15:00:48;51.20;;;26.40;;
24335;SDS011;33098;52.400;16.880;2022-12-18T15:03:18;54.90;;;27.00;;
24335;SDS011;33098;52.400;16.880;2022-12-18T15:05:47;52.90;;;27.10;;
24335;SDS011;33098;52.400;16.880;2022-12-18T15:08:25;58.10;;;29.00;;
24335;SDS011;33098;52.400;16.880;2022-12-18T15:10:54;49.90;;;25.10;;
24335;SDS011;33098;52.400;16.880;2022-12-18T15:13:23;52.10;;;26.40;;
24335;SDS011;33098;52.400;16.880;2022-12-18T15:15:51;49.90;;;25.90;;
24335;SDS011;33098;52.400;16.880;2022-12-18T15:18:21;54.70;;;27.50;;
24335;SDS011;33098;52.400;16.880;2022-12-18T15:20:57;62.00;;;29.50;;
24335;SDS011;33098;52.400;16.880;2022-12-18T15:23:27;54.70;;;27.60;;
24335;SDS011;33098;52.400;16.880;2022-12-18T15:26:05;54.80;;;27.70;;
24335;SDS011;33098;52.400;16.880;2022-12-18T15:28:37;56.00;;;26.00;;
24335;SDS011;33098;52.400;16.880;2022-12-18T15:31:28;51.80;;;26.60;;
24335;SDS011;33098;52.400;16.880;2022-12-18T15:36:22;56.70;;;28.30;;
24335;SDS011;33098;52.400;16.880;2022-12-18T15:38:50;53.20;;;27.40;;
24335;SDS011;33098;52.400;16.880;2022-12-18T15:43:48;45.60;;;24.90;;
24335;SDS011;33098;52.400;16.880;2022-12-18T15:46:18;48.00;;;25.10;;
24335;SDS011;33098;52.400;16.880;2022-12-18T15:51:24;51.30;;;25.80;;
24335;SDS011;33098;52.400;16.880;2022-12-18T15:53:55;51.90;;;26.30;;
24335;SDS011;33098;52.400;16.880;2022-12-18T15:56:23;53.20;;;24.80;;
24335;SDS011;33098;52.400;16.880;2022-12-18T15:59:13;49.40;;;26.10;;
24335;SDS011;33098;52.400;16.880;2022-12-18T16:01:42;53.40;;;26.20;;
24335;SDS011;33098;52.400;16.880;2022-12-18T16:04:11;44.70;;;23.50;;
24335;SDS011;33098;52.400;16.880;2022-12-18T16:06:39;52.70;;;26.60;;
24335;SDS011;33098;52.400;16.880;2022-12-18T16:09:07;54.00;;;26.10;;
24335;SDS011;33098;52.400;16.880;2022-12-18T16:11:34;47.70;;;24.50;;
24335;SDS011;33098;52.400;16.880;2022-12-18T16:14:18;43.30;;;22.30;;
24335;SDS011;33098;52.400;16.880;2022-12-18T16:16:51;44.30;;;22.10;;
24335;SDS011;33098;52.400;16.880;2022-12-18T16:19:22;47.80;;;23.30;;
24335;SDS011;33098;52.400;16.880;2022-12-18T16:21:50;48.70;;;23.20;;
24335;SDS011;33098;52.400;16.880;2022-12-18T16:24:19;44.50;;;23.80;;
24335;SDS011;33098;52.400;16.880;2022-12-18T16:26:50;48.50;;;24.20;;
24335;SDS011;33098;52.400;16.880;2022-12-18T16:29:18;45.70;;;24.00;;
24335;SDS011;33098;52.400;16.880;2022-12-18T16:31:50;47.80;;;24.10;;
24335;SDS011;33098;52.400;16.880;2022-12-18T16:34:24;48.60;;;23.60;;